Capitol Hill, Washington
Current Conditions -  °F | °C
As of 10:53 AM on Tuesday 21 Oct 2014 (Local Time) from KBFI Reporting Station
Broken Clouds Broken Clouds  
Wind Chill: 62°   Ceiling: 5000
Heat Index: 62°   Visibility: 10mi
Dew Point: 49°   Wind: 10mph
Humidity: 62%   Direction: 180°S
Pressure: 29.92"   Gusts: NA
Location:  47.6341°N, 122.322°W
Report Text: KBFI 211753Z 18009KT 10SM SCT030 BKN050 BKN200 17/09 A2992 RMK AO2 SLP131 60003 T01670094 10172 20128 51016
Loading
Personal Weather Stations






























Interactive Weather Map
Tropical Storm Tracking
New forecast layout! Learn more

10-Day Weather Forecast

Advertisements
Track Severe Weather on mobile